Moneta, Iowa
Current Conditions -  °F | °C
As of 4:53 AM on Sunday 21 Dec 2014 (Local Time) from KSPW Reporting Station
Moderate Fog Moderate Fog  
Wind Chill: 24°   Ceiling: 200
Heat Index: 33°   Visibility: 0.5mi
Dew Point: 32°   Wind: 13mph
Humidity: 96%   Direction: 150°SSE
Pressure: 29.88"   Gusts: NA
Location:  43.1758°N, 95.4927°W
Report Text: KSPW 211053Z AUTO 15011KT 1/2SM FG VV002 01/00 A2988 RMK AO2 SLP132 I1001 T00060000 TSNO
Loading
Personal Weather Stations






























Interactive Weather Map New forecast layout! Learn more

10-Day Weather Forecast

Advertisements
Track Severe Weather on mobile